sensor_id;sensor_type;location;lat;lon;timestamp;temperature;humidity
78886;DHT22;68269;52.514;5.722;2023-02-28T00:00:36;6.10;55.50
78886;DHT22;68269;52.514;5.722;2023-02-28T00:03:05;6.10;55.50
78886;DHT22;68269;52.514;5.722;2023-02-28T00:05:34;6.10;55.50
78886;DHT22;68269;52.514;5.722;2023-02-28T00:08:04;6.10;55.50
78886;DHT22;68269;52.514;5.722;2023-02-28T00:10:33;6.10;55.60
78886;DHT22;68269;52.514;5.722;2023-02-28T00:13:06;6.10;55.60
78886;DHT22;68269;52.514;5.722;2023-02-28T00:15:36;6.10;55.70
78886;DHT22;68269;52.514;5.722;2023-02-28T00:18:05;6.10;55.70
78886;DHT22;68269;52.514;5.722;2023-02-28T00:20:34;6.10;55.70
78886;DHT22;68269;52.514;5.722;2023-02-28T00:23:03;6.10;55.70
78886;DHT22;68269;52.514;5.722;2023-02-28T00:25:33;6.10;55.70
78886;DHT22;68269;52.514;5.722;2023-02-28T00:28:05;6.10;55.80
78886;DHT22;68269;52.514;5.722;2023-02-28T00:30:34;6.10;55.80
78886;DHT22;68269;52.514;5.722;2023-02-28T00:33:04;6.10;55.80
78886;DHT22;68269;52.514;5.722;2023-02-28T00:35:34;6.10;55.90
78886;DHT22;68269;52.514;5.722;2023-02-28T00:38:03;6.10;55.90
78886;DHT22;68269;52.514;5.722;2023-02-28T00:40:35;6.00;55.90
78886;DHT22;68269;52.514;5.722;2023-02-28T00:43:07;6.00;56.00
78886;DHT22;68269;52.514;5.722;2023-02-28T00:45:37;6.00;56.00
78886;DHT22;68269;52.514;5.722;2023-02-28T00:48:06;6.00;56.10
78886;DHT22;68269;52.514;5.722;2023-02-28T00:50:35;6.00;56.10
78886;DHT22;68269;52.514;5.722;2023-02-28T00:53:05;6.00;56.10
78886;DHT22;68269;52.514;5.722;2023-02-28T00:55:34;6.00;56.20
78886;DHT22;68269;52.514;5.722;2023-02-28T00:58:07;6.10;56.10
78886;DHT22;68269;52.514;5.722;2023-02-28T01:00:36;6.10;56.20
78886;DHT22;68269;52.514;5.722;2023-02-28T01:03:05;6.10;56.20
78886;DHT22;68269;52.514;5.722;2023-02-28T01:05:35;6.10;56.20
78886;DHT22;68269;52.514;5.722;2023-02-28T01:08:04;6.10;56.20
78886;DHT22;68269;52.514;5.722;2023-02-28T01:10:34;6.10;56.30
78886;DHT22;68269;52.514;5.722;2023-02-28T01:13:07;6.00;56.30
78886;DHT22;68269;52.514;5.722;2023-02-28T01:15:38;6.10;56.40
78886;DHT22;68269;52.514;5.722;2023-02-28T01:18:07;6.10;56.40
78886;DHT22;68269;52.514;5.722;2023-02-28T01:20:37;6.10;56.40
78886;DHT22;68269;52.514;5.722;2023-02-28T01:23:06;6.10;56.50
78886;DHT22;68269;52.514;5.722;2023-02-28T01:25:36;6.10;56.50
78886;DHT22;68269;52.514;5.722;2023-02-28T01:28:08;6.10;56.50
78886;DHT22;68269;52.514;5.722;2023-02-28T01:30:37;6.10;56.60
78886;DHT22;68269;52.514;5.722;2023-02-28T01:33:06;6.10;56.60
78886;DHT22;68269;52.514;5.722;2023-02-28T01:35:36;6.10;56.60
78886;DHT22;68269;52.514;5.722;2023-02-28T01:38:05;6.10;56.60
78886;DHT22;68269;52.514;5.722;2023-02-28T01:40:36;6.10;56.70
78886;DHT22;68269;52.514;5.722;2023-02-28T01:43:16;6.10;56.70
78886;DHT22;68269;52.514;5.722;2023-02-28T01:45:48;6.10;56.80
78886;DHT22;68269;52.514;5.722;2023-02-28T01:48:19;6.10;56.80
78886;DHT22;68269;52.514;5.722;2023-02-28T01:50:50;6.10;56.80
78886;DHT22;68269;52.514;5.722;2023-02-28T01:53:23;6.10;56.80
78886;DHT22;68269;52.514;5.722;2023-02-28T01:55:54;6.10;56.80
78886;DHT22;68269;52.514;5.722;2023-02-28T01:58:26;6.10;56.80
78886;DHT22;68269;52.514;5.722;2023-02-28T02:00:56;6.10;56.90
78886;DHT22;68269;52.514;5.722;2023-02-28T02:03:26;6.00;56.90
78886;DHT22;68269;52.514;5.722;2023-02-28T02:05:56;6.00;56.90
78886;DHT22;68269;52.514;5.722;2023-02-28T02:08:28;6.10;56.90
78886;DHT22;68269;52.514;5.722;2023-02-28T02:11:00;6.10;56.90
78886;DHT22;68269;52.514;5.722;2023-02-28T02:13:42;6.00;57.00
78886;DHT22;68269;52.514;5.722;2023-02-28T02:16:30;6.10;57.00
78886;DHT22;68269;52.514;5.722;2023-02-28T02:19:18;6.00;57.00
78886;DHT22;68269;52.514;5.722;2023-02-28T02:22:05;6.00;57.10
78886;DHT22;68269;52.514;5.722;2023-02-28T02:25:03;6.00;57.10
78886;DHT22;68269;52.514;5.722;2023-02-28T02:27:48;6.00;57.10
78886;DHT22;68269;52.514;5.722;2023-02-28T02:30:53;6.00;57.10
78886;DHT22;68269;52.514;5.722;2023-02-28T02:33:45;6.00;57.10
78886;DHT22;68269;52.514;5.722;2023-02-28T02:36:24;6.00;57.10
78886;DHT22;68269;52.514;5.722;2023-02-28T02:39:00;6.00;57.10
78886;DHT22;68269;52.514;5.722;2023-02-28T02:41:36;6.00;57.10
78886;DHT22;68269;52.514;5.722;2023-02-28T02:44:11;6.00;57.10
78886;DHT22;68269;52.514;5.722;2023-02-28T02:46:44;6.00;57.10
78886;DHT22;68269;52.514;5.722;2023-02-28T02:49:17;6.00;57.20
78886;DHT22;68269;52.514;5.722;2023-02-28T02:51:52;6.00;57.30
78886;DHT22;68269;52.514;5.722;2023-02-28T02:54:22;6.00;57.20
78886;DHT22;68269;52.514;5.722;2023-02-28T02:56:57;6.00;57.30
78886;DHT22;68269;52.514;5.722;2023-02-28T02:59:28;5.90;57.10
78886;DHT22;68269;52.514;5.722;2023-02-28T03:02:01;5.90;57.20
78886;DHT22;68269;52.514;5.722;2023-02-28T03:04:36;5.90;57.20
78886;DHT22;68269;52.514;5.722;2023-02-28T03:07:09;5.90;57.30
78886;DHT22;68269;52.514;5.722;2023-02-28T03:09:39;5.90;57.40
78886;DHT22;68269;52.514;5.722;2023-02-28T03:12:12;5.90;57.50
78886;DHT22;68269;52.514;5.722;2023-02-28T03:14:56;5.90;57.60
78886;DHT22;68269;52.514;5.722;2023-02-28T03:17:50;5.80;57.70
78886;DHT22;68269;52.514;5.722;2023-02-28T03:20:32;5.80;57.70
78886;DHT22;68269;52.514;5.722;2023-02-28T03:23:16;5.80;57.60
78886;DHT22;68269;52.514;5.722;2023-02-28T03:25:54;5.80;57.70
78886;DHT22;68269;52.514;5.722;2023-02-28T03:28:31;5.80;57.70
78886;DHT22;68269;52.514;5.722;2023-02-28T03:31:10;5.80;57.70
78886;DHT22;68269;52.514;5.722;2023-02-28T03:33:45;5.80;57.70
78886;DHT22;68269;52.514;5.722;2023-02-28T03:36:24;5.80;57.70
78886;DHT22;68269;52.514;5.722;2023-02-28T03:38:59;5.80;57.80
78886;DHT22;68269;52.514;5.722;2023-02-28T03:41:35;5.80;57.80
78886;DHT22;68269;52.514;5.722;2023-02-28T03:44:08;5.80;57.80
78886;DHT22;68269;52.514;5.722;2023-02-28T03:46:46;5.80;57.90
78886;DHT22;68269;52.514;5.722;2023-02-28T03:49:20;5.80;57.90
78886;DHT22;68269;52.514;5.722;2023-02-28T03:51:52;5.80;57.90
78886;DHT22;68269;52.514;5.722;2023-02-28T03:54:28;5.70;58.00
78886;DHT22;68269;52.514;5.722;2023-02-28T03:57:02;5.80;58.00
78886;DHT22;68269;52.514;5.722;2023-02-28T03:59:36;5.70;58.10
78886;DHT22;68269;52.514;5.722;2023-02-28T04:02:07;5.70;58.00
78886;DHT22;68269;52.514;5.722;2023-02-28T04:04:37;5.70;58.20
78886;DHT22;68269;52.514;5.722;2023-02-28T04:07:15;5.70;58.10
78886;DHT22;68269;52.514;5.722;2023-02-28T04:09:47;5.70;58.20
78886;DHT22;68269;52.514;5.722;2023-02-28T04:12:16;5.60;58.20
78886;DHT22;68269;52.514;5.722;2023-02-28T04:14:45;5.60;58.20
78886;DHT22;68269;52.514;5.722;2023-02-28T04:17:14;5.60;58.30
78886;DHT22;68269;52.514;5.722;2023-02-28T04:19:44;5.60;58.30
78886;DHT22;68269;52.514;5.722;2023-02-28T04:22:13;5.50;58.40
78886;DHT22;68269;52.514;5.722;2023-02-28T04:24:46;5.50;58.50
78886;DHT22;68269;52.514;5.722;2023-02-28T04:27:15;5.50;58.50
78886;DHT22;68269;52.514;5.722;2023-02-28T04:29:44;5.40;58.60
78886;DHT22;68269;52.514;5.722;2023-02-28T04:32:14;5.40;58.70
78886;DHT22;68269;52.514;5.722;2023-02-28T04:34:43;5.40;58.70
78886;DHT22;68269;52.514;5.722;2023-02-28T04:37:12;5.30;58.70
78886;DHT22;68269;52.514;5.722;2023-02-28T04:39:42;5.30;58.70
78886;DHT22;68269;52.514;5.722;2023-02-28T04:42:15;5.30;58.80
78886;DHT22;68269;52.514;5.722;2023-02-28T04:44:44;5.30;58.80
78886;DHT22;68269;52.514;5.722;2023-02-28T04:47:13;5.30;58.80
78886;DHT22;68269;52.514;5.722;2023-02-28T04:49:42;5.20;58.90
78886;DHT22;68269;52.514;5.722;2023-02-28T04:52:12;5.20;58.90
78886;DHT22;68269;52.514;5.722;2023-02-28T04:54:41;5.10;58.90
78886;DHT22;68269;52.514;5.722;2023-02-28T04:57:11;5.20;58.90
78886;DHT22;68269;52.514;5.722;2023-02-28T04:59:43;5.10;58.90
78886;DHT22;68269;52.514;5.722;2023-02-28T05:02:12;5.10;59.00
78886;DHT22;68269;52.514;5.722;2023-02-28T05:04:41;5.10;59.00
78886;DHT22;68269;52.514;5.722;2023-02-28T05:07:10;5.10;59.00
78886;DHT22;68269;52.514;5.722;2023-02-28T05:09:40;5.00;59.00
78886;DHT22;68269;52.514;5.722;2023-02-28T05:12:09;5.00;59.10
78886;DHT22;68269;52.514;5.722;2023-02-28T05:14:38;5.00;59.10
78886;DHT22;68269;52.514;5.722;2023-02-28T05:17:11;5.00;59.10
78886;DHT22;68269;52.514;5.722;2023-02-28T05:19:40;5.00;59.20
78886;DHT22;68269;52.514;5.722;2023-02-28T05:22:13;5.00;59.20
78886;DHT22;68269;52.514;5.722;2023-02-28T05:24:44;4.90;59.20
78886;DHT22;68269;52.514;5.722;2023-02-28T05:27:13;4.90;59.20
78886;DHT22;68269;52.514;5.722;2023-02-28T05:29:42;4.80;59.20
78886;DHT22;68269;52.514;5.722;2023-02-28T05:32:14;4.70;59.20
78886;DHT22;68269;52.514;5.722;2023-02-28T05:34:44;4.70;59.20
78886;DHT22;68269;52.514;5.722;2023-02-28T05:37:14;4.70;59.20
78886;DHT22;68269;52.514;5.722;2023-02-28T05:39:44;4.70;59.20
78886;DHT22;68269;52.514;5.722;2023-02-28T05:42:13;4.70;59.20
78886;DHT22;68269;52.514;5.722;2023-02-28T05:44:42;4.70;59.20
78886;DHT22;68269;52.514;5.722;2023-02-28T05:47:14;4.70;59.20
78886;DHT22;68269;52.514;5.722;2023-02-28T05:49:43;4.70;59.10
78886;DHT22;68269;52.514;5.722;2023-02-28T05:52:12;4.70;59.10
78886;DHT22;68269;52.514;5.722;2023-02-28T05:54:42;4.60;59.20
78886;DHT22;68269;52.514;5.722;2023-02-28T05:57:11;4.50;59.20
78886;DHT22;68269;52.514;5.722;2023-02-28T05:59:40;4.50;59.10
78886;DHT22;68269;52.514;5.722;2023-02-28T06:02:15;4.50;59.10
78886;DHT22;68269;52.514;5.722;2023-02-28T06:04:44;4.50;59.20
78886;DHT22;68269;52.514;5.722;2023-02-28T06:07:13;4.40;59.20
78886;DHT22;68269;52.514;5.722;2023-02-28T06:09:43;4.40;59.20
78886;DHT22;68269;52.514;5.722;2023-02-28T06:12:13;4.30;59.30
78886;DHT22;68269;52.514;5.722;2023-02-28T06:14:42;4.30;59.30
78886;DHT22;68269;52.514;5.722;2023-02-28T06:17:11;4.20;59.30
78886;DHT22;68269;52.514;5.722;2023-02-28T06:19:43;4.20;59.30
78886;DHT22;68269;52.514;5.722;2023-02-28T06:22:14;4.20;59.30
78886;DHT22;68269;52.514;5.722;2023-02-28T06:24:43;4.10;59.30
78886;DHT22;68269;52.514;5.722;2023-02-28T06:27:12;4.10;59.30
78886;DHT22;68269;52.514;5.722;2023-02-28T06:29:42;4.00;59.40
78886;DHT22;68269;52.514;5.722;2023-02-28T06:32:11;4.00;59.40
78886;DHT22;68269;52.514;5.722;2023-02-28T06:34:43;4.00;59.40
78886;DHT22;68269;52.514;5.722;2023-02-28T06:37:12;3.90;59.50
78886;DHT22;68269;52.514;5.722;2023-02-28T06:39:41;3.90;59.50
78886;DHT22;68269;52.514;5.722;2023-02-28T06:42:11;3.90;59.50
78886;DHT22;68269;52.514;5.722;2023-02-28T06:44:40;4.00;59.40
78886;DHT22;68269;52.514;5.722;2023-02-28T06:47:09;4.00;59.40
78886;DHT22;68269;52.514;5.722;2023-02-28T06:49:39;4.00;59.30
78886;DHT22;68269;52.514;5.722;2023-02-28T06:52:11;4.00;59.30
78886;DHT22;68269;52.514;5.722;2023-02-28T06:54:40;3.90;59.30
78886;DHT22;68269;52.514;5.722;2023-02-28T06:57:10;3.90;59.30
78886;DHT22;68269;52.514;5.722;2023-02-28T06:59:39;3.90;59.30
78886;DHT22;68269;52.514;5.722;2023-02-28T07:02:08;4.00;59.30
78886;DHT22;68269;52.514;5.722;2023-02-28T07:04:37;4.00;59.20
78886;DHT22;68269;52.514;5.722;2023-02-28T07:07:13;4.00;59.20
78886;DHT22;68269;52.514;5.722;2023-02-28T07:09:42;4.10;59.20
78886;DHT22;68269;52.514;5.722;2023-02-28T07:12:11;4.10;59.20
78886;DHT22;68269;52.514;5.722;2023-02-28T07:14:41;4.10;59.20
78886;DHT22;68269;52.514;5.722;2023-02-28T07:17:11;4.10;59.20
78886;DHT22;68269;52.514;5.722;2023-02-28T07:19:40;4.10;59.20
78886;DHT22;68269;52.514;5.722;2023-02-28T07:22:09;4.10;59.20
78886;DHT22;68269;52.514;5.722;2023-02-28T07:24:41;4.10;59.20
78886;DHT22;68269;52.514;5.722;2023-02-28T07:27:10;4.10;59.20
78886;DHT22;68269;52.514;5.722;2023-02-28T07:29:52;4.10;59.20
78886;DHT22;68269;52.514;5.722;2023-02-28T07:32:22;4.10;59.10
78886;DHT22;68269;52.514;5.722;2023-02-28T07:34:51;4.10;59.20
78886;DHT22;68269;52.514;5.722;2023-02-28T07:37:20;4.20;59.20
78886;DHT22;68269;52.514;5.722;2023-02-28T07:39:52;4.20;59.20
78886;DHT22;68269;52.514;5.722;2023-02-28T07:42:22;4.20;59.20
78886;DHT22;68269;52.514;5.722;2023-02-28T07:44:51;4.20;59.20
78886;DHT22;68269;52.514;5.722;2023-02-28T07:47:20;4.30;59.20
78886;DHT22;68269;52.514;5.722;2023-02-28T07:49:49;4.30;59.20
78886;DHT22;68269;52.514;5.722;2023-02-28T07:52:19;4.40;59.20
78886;DHT22;68269;52.514;5.722;2023-02-28T07:54:52;4.40;59.20
78886;DHT22;68269;52.514;5.722;2023-02-28T07:57:21;4.50;59.20
78886;DHT22;68269;52.514;5.722;2023-02-28T07:59:51;4.50;59.20
78886;DHT22;68269;52.514;5.722;2023-02-28T08:02:20;4.50;59.20
78886;DHT22;68269;52.514;5.722;2023-02-28T08:04:50;4.50;59.30
78886;DHT22;68269;52.514;5.722;2023-02-28T08:07:19;4.60;59.20
78886;DHT22;68269;52.514;5.722;2023-02-28T08:09:48;4.60;59.20
78886;DHT22;68269;52.514;5.722;2023-02-28T08:12:20;4.70;59.30
78886;DHT22;68269;52.514;5.722;2023-02-28T08:14:50;4.70;59.30
78886;DHT22;68269;52.514;5.722;2023-02-28T08:17:19;4.70;59.20
78886;DHT22;68269;52.514;5.722;2023-02-28T08:19:48;4.70;59.30
78886;DHT22;68269;52.514;5.722;2023-02-28T08:22:17;4.80;59.30
78886;DHT22;68269;52.514;5.722;2023-02-28T08:24:47;4.80;59.30
78886;DHT22;68269;52.514;5.722;2023-02-28T08:27:16;4.80;59.30
78886;DHT22;68269;52.514;5.722;2023-02-28T08:29:48;4.90;59.30
78886;DHT22;68269;52.514;5.722;2023-02-28T08:32:17;4.90;59.40
78886;DHT22;68269;52.514;5.722;2023-02-28T08:34:46;4.90;59.40
78886;DHT22;68269;52.514;5.722;2023-02-28T08:37:16;4.90;59.40
78886;DHT22;68269;52.514;5.722;2023-02-28T08:39:45;4.90;59.50
78886;DHT22;68269;52.514;5.722;2023-02-28T08:42:14;4.90;59.50
78886;DHT22;68269;52.514;5.722;2023-02-28T08:44:44;4.90;59.50
78886;DHT22;68269;52.514;5.722;2023-02-28T08:47:16;5.00;59.50
78886;DHT22;68269;52.514;5.722;2023-02-28T08:49:45;4.90;59.50
78886;DHT22;68269;52.514;5.722;2023-02-28T08:52:14;4.90;59.60
78886;DHT22;68269;52.514;5.722;2023-02-28T08:54:43;5.00;59.70
78886;DHT22;68269;52.514;5.722;2023-02-28T08:57:13;5.00;59.70
78886;DHT22;68269;52.514;5.722;2023-02-28T08:59:42;5.00;59.70
78886;DHT22;68269;52.514;5.722;2023-02-28T09:02:15;5.00;59.70
78886;DHT22;68269;52.514;5.722;2023-02-28T09:04:44;5.00;59.70
78886;DHT22;68269;52.514;5.722;2023-02-28T09:07:14;5.00;59.70
78886;DHT22;68269;52.514;5.722;2023-02-28T09:09:43;5.00;59.70
78886;DHT22;68269;52.514;5.722;2023-02-28T09:12:25;5.10;59.70
78886;DHT22;68269;52.514;5.722;2023-02-28T09:14:55;5.10;59.70
78886;DHT22;68269;52.514;5.722;2023-02-28T09:17:27;5.10;59.70
78886;DHT22;68269;52.514;5.722;2023-02-28T09:19:56;5.10;59.70
78886;DHT22;68269;52.514;5.722;2023-02-28T09:22:25;5.10;59.70
78886;DHT22;68269;52.514;5.722;2023-02-28T09:24:55;5.20;59.70
78886;DHT22;68269;52.514;5.722;2023-02-28T09:27:24;5.30;59.70
78886;DHT22;68269;52.514;5.722;2023-02-28T09:29:54;5.20;59.80
78886;DHT22;68269;52.514;5.722;2023-02-28T09:32:25;5.30;59.70
78886;DHT22;68269;52.514;5.722;2023-02-28T09:34:55;5.40;59.70
78886;DHT22;68269;52.514;5.722;2023-02-28T09:37:24;5.50;59.50
78886;DHT22;68269;52.514;5.722;2023-02-28T09:39:57;5.70;59.40
78886;DHT22;68269;52.514;5.722;2023-02-28T09:42:31;5.80;59.30
78886;DHT22;68269;52.514;5.722;2023-02-28T09:45:05;6.00;59.10
78886;DHT22;68269;52.514;5.722;2023-02-28T09:47:40;6.10;59.00
78886;DHT22;68269;52.514;5.722;2023-02-28T09:50:20;6.10;59.00
78886;DHT22;68269;52.514;5.722;2023-02-28T09:52:50;6.20;59.00
78886;DHT22;68269;52.514;5.722;2023-02-28T09:55:25;6.20;59.00
78886;DHT22;68269;52.514;5.722;2023-02-28T09:57:57;6.20;59.00
78886;DHT22;68269;52.514;5.722;2023-02-28T10:00:32;6.20;59.00
78886;DHT22;68269;52.514;5.722;2023-02-28T10:03:32;6.30;59.00
78886;DHT22;68269;52.514;5.722;2023-02-28T10:06:09;6.30;59.00
78886;DHT22;68269;52.514;5.722;2023-02-28T10:08:43;6.30;59.00
78886;DHT22;68269;52.514;5.722;2023-02-28T10:11:16;6.40;58.90
78886;DHT22;68269;52.514;5.722;2023-02-28T10:13:52;6.40;58.80
78886;DHT22;68269;52.514;5.722;2023-02-28T10:16:31;6.50;58.80
78886;DHT22;68269;52.514;5.722;2023-02-28T10:19:09;6.50;58.70
78886;DHT22;68269;52.514;5.722;2023-02-28T10:21:46;6.60;58.60
78886;DHT22;68269;52.514;5.722;2023-02-28T10:24:23;6.70;58.50
78886;DHT22;68269;52.514;5.722;2023-02-28T10:26:58;6.70;58.30
78886;DHT22;68269;52.514;5.722;2023-02-28T10:29:31;6.80;58.20
78886;DHT22;68269;52.514;5.722;2023-02-28T10:32:02;6.90;58.10
78886;DHT22;68269;52.514;5.722;2023-02-28T10:34:35;7.00;58.00
78886;DHT22;68269;52.514;5.722;2023-02-28T10:37:04;7.00;57.90
78886;DHT22;68269;52.514;5.722;2023-02-28T10:39:38;7.10;57.70
78886;DHT22;68269;52.514;5.722;2023-02-28T10:42:21;7.10;57.70
78886;DHT22;68269;52.514;5.722;2023-02-28T10:45:10;7.20;57.60
78886;DHT22;68269;52.514;5.722;2023-02-28T10:47:50;7.20;57.40
78886;DHT22;68269;52.514;5.722;2023-02-28T10:50:33;7.20;57.30
78886;DHT22;68269;52.514;5.722;2023-02-28T10:53:22;7.40;57.20
78886;DHT22;68269;52.514;5.722;2023-02-28T10:55:58;7.50;57.00
78886;DHT22;68269;52.514;5.722;2023-02-28T10:58:30;7.50;57.00
78886;DHT22;68269;52.514;5.722;2023-02-28T11:00:59;7.60;56.80
78886;DHT22;68269;52.514;5.722;2023-02-28T11:03:31;7.60;56.70
78886;DHT22;68269;52.514;5.722;2023-02-28T11:06:08;7.80;56.60
78886;DHT22;68269;52.514;5.722;2023-02-28T11:08:48;7.80;56.40
78886;DHT22;68269;52.514;5.722;2023-02-28T11:11:18;8.00;56.20
78886;DHT22;68269;52.514;5.722;2023-02-28T11:13:52;8.10;55.90
78886;DHT22;68269;52.514;5.722;2023-02-28T11:16:22;8.30;55.70
78886;DHT22;68269;52.514;5.722;2023-02-28T11:19:02;8.50;55.50
78886;DHT22;68269;52.514;5.722;2023-02-28T11:21:36;8.60;55.30
78886;DHT22;68269;52.514;5.722;2023-02-28T11:24:15;8.80;55.10
78886;DHT22;68269;52.514;5.722;2023-02-28T11:26:49;8.80;54.90
78886;DHT22;68269;52.514;5.722;2023-02-28T11:29:21;8.80;55.00
78886;DHT22;68269;52.514;5.722;2023-02-28T11:32:07;8.90;54.80
78886;DHT22;68269;52.514;5.722;2023-02-28T11:34:41;9.00;54.50
78886;DHT22;68269;52.514;5.722;2023-02-28T11:37:15;9.10;54.50
78886;DHT22;68269;52.514;5.722;2023-02-28T11:39:45;9.20;54.40
78886;DHT22;68269;52.514;5.722;2023-02-28T11:42:32;9.40;54.20
78886;DHT22;68269;52.514;5.722;2023-02-28T11:45:26;9.40;53.90
78886;DHT22;68269;52.514;5.722;2023-02-28T11:48:04;9.60;53.80
78886;DHT22;68269;52.514;5.722;2023-02-28T11:50:45;9.60;53.80
78886;DHT22;68269;52.514;5.722;2023-02-28T11:53:23;9.70;53.70
78886;DHT22;68269;52.514;5.722;2023-02-28T11:55:58;9.70;53.60
78886;DHT22;68269;52.514;5.722;2023-02-28T11:58:36;9.80;53.60
78886;DHT22;68269;52.514;5.722;2023-02-28T12:01:32;10.00;53.50
78886;DHT22;68269;52.514;5.722;2023-02-28T12:04:23;10.20;53.20
78886;DHT22;68269;52.514;5.722;2023-02-28T12:07:00;10.30;53.20
78886;DHT22;68269;52.514;5.722;2023-02-28T12:09:51;10.40;53.10
78886;DHT22;68269;52.514;5.722;2023-02-28T12:12:32;10.50;53.00
78886;DHT22;68269;52.514;5.722;2023-02-28T12:15:32;10.60;53.00
78886;DHT22;68269;52.514;5.722;2023-02-28T12:18:26;10.70;52.80
78886;DHT22;68269;52.514;5.722;2023-02-28T12:21:01;10.80;52.80
78886;DHT22;68269;52.514;5.722;2023-02-28T12:26:47;10.90;52.60
78886;DHT22;68269;52.514;5.722;2023-02-28T12:29:23;11.00;52.50
78886;DHT22;68269;52.514;5.722;2023-02-28T12:31:55;11.00;52.50
78886;DHT22;68269;52.514;5.722;2023-02-28T12:34:33;11.10;52.50
78886;DHT22;68269;52.514;5.722;2023-02-28T12:37:07;11.10;52.40
78886;DHT22;68269;52.514;5.722;2023-02-28T12:39:41;11.20;52.30
78886;DHT22;68269;52.514;5.722;2023-02-28T12:42:19;11.30;52.20
78886;DHT22;68269;52.514;5.722;2023-02-28T12:44:53;11.40;52.10
78886;DHT22;68269;52.514;5.722;2023-02-28T12:47:23;11.50;52.00
78886;DHT22;68269;52.514;5.722;2023-02-28T12:49:57;11.50;51.90
78886;DHT22;68269;52.514;5.722;2023-02-28T12:52:34;11.50;51.90
78886;DHT22;68269;52.514;5.722;2023-02-28T12:55:11;11.50;51.80
78886;DHT22;68269;52.514;5.722;2023-02-28T12:57:50;11.50;51.80
78886;DHT22;68269;52.514;5.722;2023-02-28T13:00:24;11.70;51.70
78886;DHT22;68269;52.514;5.722;2023-02-28T13:03:04;11.80;51.70
78886;DHT22;68269;52.514;5.722;2023-02-28T13:06:10;11.90;51.60
78886;DHT22;68269;52.514;5.722;2023-02-28T13:09:08;11.80;51.40
78886;DHT22;68269;52.514;5.722;2023-02-28T13:11:41;11.70;51.40
78886;DHT22;68269;52.514;5.722;2023-02-28T13:14:24;11.70;51.50
78886;DHT22;68269;52.514;5.722;2023-02-28T13:17:01;11.90;51.40
78886;DHT22;68269;52.514;5.722;2023-02-28T13:19:33;11.90;51.30
78886;DHT22;68269;52.514;5.722;2023-02-28T13:22:04;11.90;51.30
78886;DHT22;68269;52.514;5.722;2023-02-28T13:24:41;11.90;51.20
78886;DHT22;68269;52.514;5.722;2023-02-28T13:27:33;11.90;51.20
78886;DHT22;68269;52.514;5.722;2023-02-28T13:33:26;11.90;51.00
78886;DHT22;68269;52.514;5.722;2023-02-28T13:36:11;11.90;51.00
78886;DHT22;68269;52.514;5.722;2023-02-28T13:38:54;11.70;51.00
78886;DHT22;68269;52.514;5.722;2023-02-28T13:41:42;11.70;51.10
78886;DHT22;68269;52.514;5.722;2023-02-28T13:44:14;11.90;50.80
78886;DHT22;68269;52.514;5.722;2023-02-28T13:49:45;11.90;50.70
78886;DHT22;68269;52.514;5.722;2023-02-28T13:52:18;12.00;50.70
78886;DHT22;68269;52.514;5.722;2023-02-28T13:54:59;12.00;50.50
78886;DHT22;68269;52.514;5.722;2023-02-28T13:57:41;12.00;50.50
78886;DHT22;68269;52.514;5.722;2023-02-28T14:00:23;12.00;50.40
78886;DHT22;68269;52.514;5.722;2023-02-28T14:03:11;12.00;50.40
78886;DHT22;68269;52.514;5.722;2023-02-28T14:05:44;11.90;50.30
78886;DHT22;68269;52.514;5.722;2023-02-28T14:08:18;11.90;50.40
78886;DHT22;68269;52.514;5.722;2023-02-28T14:10:51;11.90;50.30
78886;DHT22;68269;52.514;5.722;2023-02-28T14:13:40;11.90;50.20
78886;DHT22;68269;52.514;5.722;2023-02-28T14:16:11;12.00;50.10
78886;DHT22;68269;52.514;5.722;2023-02-28T14:18:49;12.00;50.10
78886;DHT22;68269;52.514;5.722;2023-02-28T14:21:27;12.10;49.90
78886;DHT22;68269;52.514;5.722;2023-02-28T14:27:05;12.30;49.70
78886;DHT22;68269;52.514;5.722;2023-02-28T14:29:59;12.30;49.60
78886;DHT22;68269;52.514;5.722;2023-02-28T14:32:35;12.30;49.60
78886;DHT22;68269;52.514;5.722;2023-02-28T14:35:20;12.50;49.60
78886;DHT22;68269;52.514;5.722;2023-02-28T14:37:53;12.50;49.40
78886;DHT22;68269;52.514;5.722;2023-02-28T14:40:30;12.50;49.40
78886;DHT22;68269;52.514;5.722;2023-02-28T14:43:03;12.50;49.40
78886;DHT22;68269;52.514;5.722;2023-02-28T14:45:35;12.50;49.40
78886;DHT22;68269;52.514;5.722;2023-02-28T14:48:09;12.70;49.20
78886;DHT22;68269;52.514;5.722;2023-02-28T14:50:39;12.70;49.20
78886;DHT22;68269;52.514;5.722;2023-02-28T14:53:17;12.80;49.20
78886;DHT22;68269;52.514;5.722;2023-02-28T14:55:48;12.90;49.10
78886;DHT22;68269;52.514;5.722;2023-02-28T14:58:23;12.90;49.10
78886;DHT22;68269;52.514;5.722;2023-02-28T15:00:54;13.00;49.00
78886;DHT22;68269;52.514;5.722;2023-02-28T15:03:28;13.10;49.00
78886;DHT22;68269;52.514;5.722;2023-02-28T15:06:00;13.10;48.90
78886;DHT22;68269;52.514;5.722;2023-02-28T15:08:32;13.00;49.00
78886;DHT22;68269;52.514;5.722;2023-02-28T15:11:03;13.00;48.90
78886;DHT22;68269;52.514;5.722;2023-02-28T15:13:37;13.00;49.00
78886;DHT22;68269;52.514;5.722;2023-02-28T15:16:11;13.10;48.90
78886;DHT22;68269;52.514;5.722;2023-02-28T15:18:45;13.10;48.90
78886;DHT22;68269;52.514;5.722;2023-02-28T15:21:16;13.10;48.80
78886;DHT22;68269;52.514;5.722;2023-02-28T15:23:51;13.20;48.80
78886;DHT22;68269;52.514;5.722;2023-02-28T15:26:24;13.30;48.70
78886;DHT22;68269;52.514;5.722;2023-02-28T15:28:58;13.50;48.70
78886;DHT22;68269;52.514;5.722;2023-02-28T15:31:31;13.50;48.70
78886;DHT22;68269;52.514;5.722;2023-02-28T15:34:04;13.60;48.70
78886;DHT22;68269;52.514;5.722;2023-02-28T15:36:34;13.70;48.60
78886;DHT22;68269;52.514;5.722;2023-02-28T15:39:23;13.90;48.70
78886;DHT22;68269;52.514;5.722;2023-02-28T15:42:10;13.90;48.50
78886;DHT22;68269;52.514;5.722;2023-02-28T15:44:39;14.10;48.60
78886;DHT22;68269;52.514;5.722;2023-02-28T15:47:16;14.70;48.40
78886;DHT22;68269;52.514;5.722;2023-02-28T15:49:49;16.20;47.00
78886;DHT22;68269;52.514;5.722;2023-02-28T15:52:20;18.00;45.10
78886;DHT22;68269;52.514;5.722;2023-02-28T15:54:52;19.50;44.00
78886;DHT22;68269;52.514;5.722;2023-02-28T15:57:24;20.30;43.20
78886;DHT22;68269;52.514;5.722;2023-02-28T15:59:55;20.80;42.90
78886;DHT22;68269;52.514;5.722;2023-02-28T16:02:31;21.10;42.60
78886;DHT22;68269;52.514;5.722;2023-02-28T16:05:19;21.40;42.50
78886;DHT22;68269;52.514;5.722;2023-02-28T16:07:54;21.70;42.20
78886;DHT22;68269;52.514;5.722;2023-02-28T16:10:28;21.50;42.50
78886;DHT22;68269;52.514;5.722;2023-02-28T16:12:57;21.40;42.60
78886;DHT22;68269;52.514;5.722;2023-02-28T16:15:37;20.70;43.20
78886;DHT22;68269;52.514;5.722;2023-02-28T16:18:11;19.70;43.90
78886;DHT22;68269;52.514;5.722;2023-02-28T16:20:40;18.60;44.70
78886;DHT22;68269;52.514;5.722;2023-02-28T16:23:10;18.10;45.00
78886;DHT22;68269;52.514;5.722;2023-02-28T16:25:44;18.00;45.00
78886;DHT22;68269;52.514;5.722;2023-02-28T16:28:19;18.00;44.70
78886;DHT22;68269;52.514;5.722;2023-02-28T16:30:51;17.60;44.90
78886;DHT22;68269;52.514;5.722;2023-02-28T16:33:20;17.50;44.80
78886;DHT22;68269;52.514;5.722;2023-02-28T16:35:50;17.60;44.70